Altdorf, Wisconsin
Current Conditions -  °F | °C
As of 5:54 AM on Friday 28 Nov 2014 (Local Time) from KISW Reporting Station
Overcast Overcast  
Wind Chill:   Ceiling: 7500
Heat Index: 10°   Visibility: NA
Dew Point:   Wind: 6mph
Humidity: 76%   Direction: 130°SE
Pressure: 30.19"   Gusts: NA
Location:  44.4583°N, 90.0009°W
Report Text: KISW 281154Z AUTO 13005KT SCT045 OVC075 M12/M16 A3019 RMK AO2 SNE21 SLP248 P0000 60000 T11221156 11122 21161 56033 $
Loading
Personal Weather Stations






























Interactive Weather Map New forecast layout! Learn more

10-Day Weather Forecast

Advertisements
Track Severe Weather on mobile